Time;durP1;ratioP1;P1;durP2;ratioP2;P2;SDS_P1;SDS_P2;PMS_P1;PMS_P2;Temp;Humidity;BMP_temperature;BMP_pressure;BME280_temperature;BME280_humidity;BME280_pressure;Samples;Min_cycle;Max_cycle;Signal;HPM_P1;HPM_P2
2023/05/16 00:00:14;;;;;;;21.95;6.00;;;;;;;8.48;100.00;101745.84;5092566;28;20035;-57
2023/05/16 00:02:40;;;;;;;21.95;5.18;;;;;;;8.47;100.00;101754.34;5092655;28;20425;-57
2023/05/16 00:05:09;;;;;;;25.30;5.38;;;;;;;8.44;100.00;101756.69;5093369;28;20467;-57
2023/05/16 00:07:35;;;;;;;23.60;6.10;;;;;;;8.37;100.00;101750.34;5092424;28;20088;-57
2023/05/16 00:10:01;;;;;;;23.85;5.82;;;;;;;8.36;100.00;101753.72;5092947;28;20352;-57
2023/05/16 00:12:27;;;;;;;24.08;4.85;;;;;;;8.32;100.00;101753.50;5092776;28;20066;-57
2023/05/16 00:14:52;;;;;;;22.58;4.60;;;;;;;8.31;100.00;101762.00;5092450;28;20023;-57
2023/05/16 00:17:19;;;;;;;26.00;5.35;;;;;;;8.28;100.00;101757.56;5092357;28;20396;-57
2023/05/16 00:19:47;;;;;;;27.00;5.90;;;;;;;8.28;100.00;101756.72;5092946;28;20490;-57
2023/05/16 00:22:14;;;;;;;24.70;5.45;;;;;;;8.23;100.00;101759.88;5092522;28;20157;-57
2023/05/16 00:24:40;;;;;;;22.45;4.90;;;;;;;8.20;100.00;101764.00;5092573;28;20043;-57
2023/05/16 00:27:05;;;;;;;22.15;5.07;;;;;;;8.14;100.00;101767.09;5092954;28;20388;-57
2023/05/16 00:29:31;;;;;;;23.02;4.93;;;;;;;8.06;100.00;101763.25;5092250;28;20032;-57
2023/05/16 00:31:56;;;;;;;20.45;4.70;;;;;;;7.99;100.00;101762.03;5092923;28;20034;-57
2023/05/16 00:34:21;;;;;;;21.98;4.65;;;;;;;7.93;100.00;101761.69;5092841;28;20456;-57
2023/05/16 00:36:48;;;;;;;20.20;5.25;;;;;;;7.85;100.00;101758.69;5092251;28;20561;-57
2023/05/16 00:39:14;;;;;;;24.97;5.03;;;;;;;7.75;100.00;101758.97;5092724;28;20109;-57
2023/05/16 00:41:40;;;;;;;23.80;5.32;;;;;;;7.65;100.00;101749.00;5092691;28;20308;-57
2023/05/16 00:44:05;;;;;;;25.40;4.88;;;;;;;7.56;100.00;101757.06;5092166;28;20026;-57
2023/05/16 00:46:31;;;;;;;20.13;4.57;;;;;;;7.51;100.00;101764.47;5092445;28;20376;-57
2023/05/16 00:48:57;;;;;;;25.08;4.95;;;;;;;7.45;100.00;101759.03;5092871;28;20024;-57
2023/05/16 00:51:22;;;;;;;20.75;4.82;;;;;;;7.33;100.00;101755.75;5092088;28;20439;-57
2023/05/16 00:53:48;;;;;;;21.73;4.80;;;;;;;7.29;100.00;101759.81;5092445;28;20032;-57
2023/05/16 00:56:13;;;;;;;27.35;5.75;;;;;;;7.18;100.00;101764.34;5092218;28;20097;-57
2023/05/16 00:58:38;;;;;;;21.10;4.55;;;;;;;7.14;100.00;101762.41;5091869;28;20034;-57
2023/05/16 01:01:04;;;;;;;26.42;5.20;;;;;;;7.05;100.00;101762.72;5096043;28;20021;-57
2023/05/16 01:03:30;;;;;;;25.35;5.30;;;;;;;6.95;100.00;101764.69;5095672;28;20028;-57
2023/05/16 01:05:56;;;;;;;18.48;5.00;;;;;;;6.87;100.00;101766.78;5096343;28;20032;-57
2023/05/16 01:08:23;;;;;;;25.38;4.97;;;;;;;6.77;100.00;101770.47;5096374;28;20067;-57
2023/05/16 01:11:22;;;;;;;19.75;4.70;;;;;;;6.75;100.00;101772.03;5095967;28;20028;-56
2023/05/16 01:14:16;;;;;;;23.02;5.25;;;;;;;6.66;100.00;101776.63;5096285;28;20016;-57
2023/05/16 01:16:50;;;;;;;16.17;4.28;;;;;;;6.57;100.00;101776.94;5096093;28;20044;-57
2023/05/16 01:19:24;;;;;;;20.13;5.03;;;;;;;6.49;100.00;101778.16;5095547;28;20031;-57
2023/05/16 01:22:05;;;;;;;19.98;4.68;;;;;;;6.48;100.00;101776.38;5095852;28;20537;-57
2023/05/16 01:24:42;;;;;;;21.35;4.95;;;;;;;6.43;100.00;101778.69;5095357;28;20493;-57
2023/05/16 01:27:09;;;;;;;;;;;;;;;6.50;100.00;101775.69;5096354;28;20502;-57
2023/05/16 01:29:35;;;;;;;22.17;4.80;;;;;;;6.29;100.00;101774.34;5095706;28;20359;-57
2023/05/16 01:32:00;;;;;;;21.20;4.40;;;;;;;6.22;100.00;101768.88;5095466;28;20066;-57
2023/05/16 01:34:25;;;;;;;17.58;4.20;;;;;;;6.18;100.00;101787.38;5095638;28;20048;-57
2023/05/16 01:37:15;;;;;;;19.45;4.50;;;;;;;6.17;100.00;101780.50;5095807;28;20024;-57
2023/05/16 01:39:58;;;;;;;19.52;4.45;;;;;;;6.07;100.00;101784.16;5095241;28;20051;-57
2023/05/16 01:42:29;;;;;;;22.10;4.53;;;;;;;6.03;100.00;101781.28;5095202;28;20046;-57
2023/05/16 01:45:03;;;;;;;23.73;4.75;;;;;;;6.05;100.00;101779.72;5095957;28;20058;-57
2023/05/16 01:47:31;;;;;;;20.25;5.18;;;;;;;5.95;100.00;101778.22;5095088;28;20059;-57
2023/05/16 01:50:05;;;;;;;25.08;5.03;;;;;;;5.94;100.00;101785.00;5095558;28;20020;-57
2023/05/16 01:52:39;;;;;;;23.33;5.05;;;;;;;5.92;100.00;101791.69;5094871;28;20024;-57
2023/05/16 01:55:11;;;;;;;22.33;5.07;;;;;;;5.82;100.00;101789.34;5095251;28;20501;-57
2023/05/16 01:57:37;;;;;;;21.25;4.85;;;;;;;5.82;100.00;101791.91;5095327;28;20071;-57
2023/05/16 02:00:03;;;;;;;23.75;5.25;;;;;;;5.75;100.00;101794.88;5095089;28;20024;-57
2023/05/16 02:02:30;;;;;;;26.45;5.38;;;;;;;5.68;100.00;101797.81;5095115;28;20024;-57
2023/05/16 02:04:55;;;;;;;19.55;4.03;;;;;;;5.63;100.00;101788.94;5095600;28;20035;-57
2023/05/16 02:07:21;;;;;;;20.88;4.45;;;;;;;5.61;100.00;101797.41;5094562;28;20020;-57
2023/05/16 02:09:46;;;;;;;25.80;5.28;;;;;;;5.59;100.00;101799.00;5095075;28;20063;-57
2023/05/16 02:12:12;;;;;;;22.65;4.82;;;;;;;5.53;100.00;101811.38;5094959;28;20044;-57
2023/05/16 02:14:37;;;;;;;22.15;4.72;;;;;;;5.52;100.00;101812.16;5094664;28;20496;-57
2023/05/16 02:17:02;;;;;;;21.80;4.88;;;;;;;5.46;100.00;101803.19;5094647;28;20054;-57
2023/05/16 02:19:28;;;;;;;22.73;4.22;;;;;;;5.45;100.00;101804.88;5094689;28;20077;-57
2023/05/16 02:21:53;;;;;;;20.83;4.88;;;;;;;5.40;100.00;101798.56;5094521;28;20111;-57
2023/05/16 02:24:18;;;;;;;22.45;4.57;;;;;;;5.42;100.00;101804.66;5094623;28;20013;-57
2023/05/16 02:26:44;;;;;;;22.02;4.45;;;;;;;5.31;100.00;101805.59;5095181;28;20380;-57
2023/05/16 02:29:09;;;;;;;23.60;5.05;;;;;;;5.34;100.00;101801.59;5094832;28;20080;-58
2023/05/16 02:31:35;;;;;;;22.02;5.07;;;;;;;5.35;100.00;101805.06;5094397;28;20386;-57
2023/05/16 02:34:01;;;;;;;21.83;5.03;;;;;;;5.39;100.00;101810.44;5094787;28;20024;-57
2023/05/16 02:36:26;;;;;;;26.48;4.55;;;;;;;5.24;100.00;101818.00;5093950;28;20379;-57
2023/05/16 02:38:51;;;;;;;17.45;4.40;;;;;;;5.20;100.00;101810.91;5094689;28;20464;-57
2023/05/16 02:41:17;;;;;;;17.05;4.38;;;;;;;5.16;100.00;101803.81;5094507;28;20494;-57
2023/05/16 02:43:43;;;;;;;21.13;4.43;;;;;;;5.21;100.00;101815.22;5094119;28;20464;-57
2023/05/16 02:46:24;;;;;;;19.58;4.47;;;;;;;5.22;100.00;101821.25;5094464;28;20024;-57
2023/05/16 02:48:50;;;;;;;17.65;4.20;;;;;;;5.17;100.00;101818.38;5093905;28;20035;-58
2023/05/16 02:51:16;;;;;;;23.65;4.15;;;;;;;5.09;100.00;101832.31;5094138;28;20020;-58
2023/05/16 02:53:41;;;;;;;22.35;4.68;;;;;;;5.14;100.00;101836.06;5094649;28;20024;-57
2023/05/16 02:56:06;;;;;;;16.45;4.60;;;;;;;5.14;100.00;101828.38;5093913;28;20016;-57
2023/05/16 02:58:32;;;;;;;22.17;5.20;;;;;;;5.07;100.00;101836.41;5093780;28;20468;-57
2023/05/16 03:00:58;;;;;;;23.02;4.97;;;;;;;5.06;100.00;101830.44;5094414;28;20437;-58
2023/05/16 03:03:23;;;;;;;21.52;5.50;;;;;;;5.02;100.00;101833.56;5093328;28;20383;-57
2023/05/16 03:05:49;;;;;;;23.00;5.32;;;;;;;5.08;100.00;101838.19;5093918;28;20426;-57
2023/05/16 03:08:14;;;;;;;18.88;4.30;;;;;;;5.09;100.00;101839.97;5094314;28;20040;-57
2023/05/16 03:10:39;;;;;;;20.10;4.95;;;;;;;5.08;100.00;101851.84;5093196;28;20375;-58
2023/05/16 03:13:04;;;;;;;20.50;4.95;;;;;;;5.03;100.00;101848.09;5093824;28;20016;-56
2023/05/16 03:15:30;;;;;;;23.58;4.75;;;;;;;5.07;100.00;101856.84;5093745;28;20032;-57
2023/05/16 03:17:55;;;;;;;19.27;4.60;;;;;;;4.99;100.00;101858.00;5093332;28;20044;-57
2023/05/16 03:20:21;;;;;;;19.92;4.75;;;;;;;4.99;100.00;101858.00;5093619;28;20028;-58
2023/05/16 03:22:46;;;;;;;19.77;5.03;;;;;;;4.92;100.00;101857.59;5093313;28;20016;-57
2023/05/16 03:25:12;;;;;;;17.38;4.75;;;;;;;5.03;100.00;101854.88;5093304;28;20051;-57
2023/05/16 03:27:37;;;;;;;19.73;4.70;;;;;;;4.97;100.00;101857.00;5093284;28;20032;-58
2023/05/16 03:30:03;;;;;;;18.52;4.05;;;;;;;4.86;100.00;101852.03;5093945;28;20146;-57
2023/05/16 03:32:28;;;;;;;16.05;4.43;;;;;;;4.98;100.00;101852.00;5092821;28;20020;-57
2023/05/16 03:34:53;;;;;;;21.13;4.60;;;;;;;4.80;100.00;101856.72;5093308;28;20063;-57
2023/05/16 03:37:19;;;;;;;20.48;5.13;;;;;;;4.77;100.00;101856.53;5093379;28;20490;-57
2023/05/16 03:39:44;;;;;;;22.15;5.10;;;;;;;4.75;100.00;101860.63;5093234;28;20031;-57
2023/05/16 03:42:09;;;;;;;20.52;4.95;;;;;;;4.72;100.00;101866.41;5093126;28;20027;-57
2023/05/16 03:44:35;;;;;;;18.95;4.80;;;;;;;4.72;100.00;101868.97;5093207;28;20378;-57
2023/05/16 03:47:00;;;;;;;20.40;4.88;;;;;;;4.72;100.00;101862.97;5092907;28;20024;-57
2023/05/16 03:49:28;;;;;;;19.20;4.88;;;;;;;4.73;100.00;101862.22;5092925;28;20050;-56
2023/05/16 03:51:54;;;;;;;19.60;4.68;;;;;;;4.67;100.00;101874.53;5093309;28;20545;-57
2023/05/16 03:54:19;;;;;;;25.73;5.30;;;;;;;4.68;100.00;101874.63;5092227;28;20017;-57
2023/05/16 03:56:45;;;;;;;26.42;5.43;;;;;;;4.67;100.00;101879.66;5093400;28;20042;-57
2023/05/16 03:59:10;;;;;;;19.70;5.10;;;;;;;4.68;100.00;101878.88;5092640;28;20125;-56
2023/05/16 04:01:35;;;;;;;22.67;5.25;;;;;;;4.70;100.00;101879.84;5092741;28;20085;-57
2023/05/16 04:04:00;;;;;;;20.88;5.43;;;;;;;4.80;100.00;101878.84;5093155;28;20110;-57
2023/05/16 04:06:26;;;;;;;19.58;4.97;;;;;;;4.72;100.00;101884.28;5092499;28;20089;-57
2023/05/16 04:08:51;;;;;;;25.67;5.45;;;;;;;4.78;100.00;101883.84;5093042;28;20099;-57
2023/05/16 04:11:16;;;;;;;22.70;4.63;;;;;;;4.71;100.00;101886.72;5092714;28;20365;-57
2023/05/16 04:13:41;;;;;;;23.23;5.18;;;;;;;4.85;100.00;101888.59;5092579;28;20028;-57
2023/05/16 04:16:07;;;;;;;26.58;5.35;;;;;;;4.84;100.00;101885.94;5092679;28;20365;-56
2023/05/16 04:18:32;;;;;;;22.77;4.95;;;;;;;4.88;100.00;101888.81;5092599;28;20028;-56
2023/05/16 04:20:58;;;;;;;19.83;4.80;;;;;;;4.83;100.00;101887.59;5092417;28;20020;-57
2023/05/16 04:23:23;;;;;;;23.15;6.03;;;;;;;4.82;100.00;101893.50;5092479;28;20021;-57
2023/05/16 04:25:49;;;;;;;21.83;5.45;;;;;;;4.81;100.00;101894.25;5093121;28;20095;-57
2023/05/16 04:28:15;;;;;;;22.00;5.00;;;;;;;4.87;100.00;101899.81;5092470;28;20032;-56
2023/05/16 04:30:40;;;;;;;17.38;4.43;;;;;;;4.85;100.00;101903.03;5092692;28;20078;-57
2023/05/16 04:33:06;;;;;;;21.17;5.13;;;;;;;4.86;100.00;101902.25;5093148;28;20047;-56
2023/05/16 04:35:32;;;;;;;20.58;4.82;;;;;;;4.95;100.00;101903.78;5096452;28;20059;-57
2023/05/16 04:37:58;;;;;;;19.30;4.97;;;;;;;4.95;100.00;101903.78;5096979;28;20041;-56
2023/05/16 04:40:24;;;;;;;22.70;5.05;;;;;;;4.99;100.00;101909.09;5096647;28;20020;-57
2023/05/16 04:42:50;;;;;;;22.20;5.15;;;;;;;5.01;100.00;101913.53;5096565;28;20024;-57
2023/05/16 04:45:15;;;;;;;17.17;4.88;;;;;;;5.09;100.00;101908.97;5096576;28;20043;-56
2023/05/16 04:47:41;;;;;;;22.45;5.50;;;;;;;5.03;100.00;101918.75;5096906;28;20055;-56
2023/05/16 04:50:07;;;;;;;19.92;4.65;;;;;;;5.12;100.00;101921.94;5096474;28;20040;-57
2023/05/16 04:52:33;;;;;;;19.75;5.57;;;;;;;5.12;100.00;101921.94;5096446;28;20039;-57
2023/05/16 04:54:59;;;;;;;20.13;5.07;;;;;;;5.19;100.00;101924.16;5096637;28;20028;-56
2023/05/16 04:57:24;;;;;;;23.38;5.10;;;;;;;5.25;100.00;101928.78;5095672;28;20055;-57
2023/05/16 04:59:50;;;;;;;19.95;4.90;;;;;;;5.28;100.00;101923.91;5096404;28;20024;-56
2023/05/16 05:02:15;;;;;;;22.42;5.22;;;;;;;5.34;100.00;101933.66;5096303;28;20027;-56
2023/05/16 05:04:40;;;;;;;23.33;5.07;;;;;;;5.40;100.00;101929.81;5095904;28;20028;-57
2023/05/16 05:07:06;;;;;;;22.45;5.10;;;;;;;5.52;100.00;101934.88;5096696;28;20035;-56
2023/05/16 05:09:32;;;;;;;21.40;5.53;;;;;;;5.59;100.00;101937.09;5095768;28;20083;-57
2023/05/16 05:11:57;;;;;;;20.20;4.82;;;;;;;5.66;100.00;101928.16;5096190;28;20028;-57
2023/05/16 05:14:22;;;;;;;16.40;4.60;;;;;;;5.75;100.00;101923.63;5096032;28;20028;-56
2023/05/16 05:16:48;;;;;;;20.17;4.63;;;;;;;5.90;100.00;101928.91;5095344;28;20126;-57
2023/05/16 05:19:13;;;;;;;18.60;4.85;;;;;;;5.96;100.00;101930.97;5096263;28;20387;-57
2023/05/16 05:21:38;;;;;;;22.45;5.18;;;;;;;6.10;100.00;101939.59;5096078;28;20032;-57
2023/05/16 05:24:04;;;;;;;20.08;4.72;;;;;;;6.16;100.00;101937.44;5095770;28;20364;-56
2023/05/16 05:26:29;;;;;;;19.45;4.55;;;;;;;6.30;100.00;101945.09;5095694;28;20016;-57
2023/05/16 05:28:55;;;;;;;17.23;4.50;;;;;;;6.37;100.00;101942.16;5096050;28;20103;-56
2023/05/16 05:31:20;;;;;;;18.50;4.50;;;;;;;6.47;100.00;101934.28;5095293;28;20103;-57
2023/05/16 05:33:45;;;;;;;20.58;5.07;;;;;;;6.58;100.00;101938.41;5095644;28;20518;-57
2023/05/16 05:36:11;;;;;;;18.02;4.57;;;;;;;6.69;100.00;101941.66;5096098;28;20028;-56
2023/05/16 05:38:36;;;;;;;21.75;4.40;;;;;;;6.79;100.00;101953.38;5095112;28;20105;-57
2023/05/16 05:41:01;;;;;;;20.05;5.15;;;;;;;6.91;100.00;101949.00;5095688;28;20073;-57
2023/05/16 05:43:27;;;;;;;20.20;4.18;;;;;;;6.98;100.00;101950.25;5095394;28;20107;-57
2023/05/16 05:45:52;;;;;;;17.90;4.57;;;;;;;7.10;100.00;101952.69;5094556;28;20027;-57
2023/05/16 05:48:18;;;;;;;16.50;3.65;;;;;;;7.21;100.00;101959.38;5095036;28;20394;-57
2023/05/16 05:50:43;;;;;;;17.08;3.95;;;;;;;7.27;100.00;101953.75;5095883;28;20032;-57
2023/05/16 05:53:08;;;;;;;18.92;3.97;;;;;;;7.38;100.00;101954.38;5095257;28;20024;-57
2023/05/16 05:55:34;;;;;;;13.77;3.67;;;;;;;7.50;100.00;101960.25;5095187;28;20413;-57
2023/05/16 05:57:59;;;;;;;15.02;3.67;;;;;;;7.55;100.00;101961.41;5095621;28;20447;-56
2023/05/16 06:00:24;;;;;;;16.75;3.67;;;;;;;7.62;100.00;101962.66;5094425;28;20388;-57
2023/05/16 06:02:50;;;;;;;18.92;4.03;;;;;;;7.74;100.00;101968.50;5095251;28;20073;-57
2023/05/16 06:05:15;;;;;;;17.55;3.30;;;;;;;7.84;100.00;101971.66;5094997;28;20021;-57
2023/05/16 06:07:40;;;;;;;17.77;3.70;;;;;;;7.92;100.00;101970.41;5094730;28;20055;-57
2023/05/16 06:10:07;;;;;;;18.98;4.00;;;;;;;8.07;100.00;101973.84;5095492;28;20024;-57
2023/05/16 06:12:32;;;;;;;17.92;3.55;;;;;;;8.12;100.00;101978.38;5095115;28;20043;-57
2023/05/16 06:14:58;;;;;;;20.02;3.80;;;;;;;8.20;100.00;101978.03;5094486;28;20390;-57
2023/05/16 06:17:23;;;;;;;20.58;3.58;;;;;;;8.31;100.00;101982.88;5094536;28;20055;-57
2023/05/16 06:19:48;;;;;;;15.77;3.60;;;;;;;8.32;100.00;101984.66;5094500;28;20036;-57
2023/05/16 06:22:13;;;;;;;12.98;3.42;;;;;;;8.40;100.00;101983.41;5094903;28;20024;-57
2023/05/16 06:24:39;;;;;;;12.52;3.58;;;;;;;8.50;100.00;101985.72;5094534;28;20023;-57
2023/05/16 06:27:06;;;;;;;21.25;3.45;;;;;;;8.57;99.64;101990.44;5094506;28;20027;-57
2023/05/16 06:29:31;;;;;;;15.02;3.60;;;;;;;8.65;99.50;101989.94;5094351;28;20028;-57
2023/05/16 06:31:56;;;;;;;16.02;3.38;;;;;;;8.70;99.96;101988.53;5094807;28;20035;-57
2023/05/16 06:34:27;;;;;;;17.23;3.65;;;;;;;8.82;99.98;101991.78;5094035;28;20016;-57
2023/05/16 06:36:53;;;;;;;14.77;3.13;;;;;;;8.84;97.28;101987.59;5094453;28;20020;-57
2023/05/16 06:39:18;;;;;;;15.43;3.13;;;;;;;8.92;95.00;101994.84;5094505;28;20391;-57
2023/05/16 06:41:44;;;;;;;13.50;3.25;;;;;;;8.96;95.56;101986.50;5094022;28;20486;-57
2023/05/16 06:44:10;;;;;;;14.90;3.70;;;;;;;9.05;98.10;101994.72;5094261;28;20028;-57
2023/05/16 06:46:35;;;;;;;16.17;3.33;;;;;;;9.08;98.54;101989.75;5094184;28;20028;-57
2023/05/16 06:49:01;;;;;;;19.60;3.55;;;;;;;9.19;98.24;101998.94;5094223;28;20047;-57
2023/05/16 06:51:26;;;;;;;15.60;3.22;;;;;;;9.27;96.96;101995.88;5094148;28;20479;-57
2023/05/16 06:53:51;;;;;;;10.82;2.63;;;;;;;9.36;94.90;101993.78;5094540;28;20028;-57
2023/05/16 06:56:17;;;;;;;15.18;3.40;;;;;;;9.54;96.19;101991.28;5093166;28;20376;-57
2023/05/16 06:58:42;;;;;;;15.63;3.38;;;;;;;9.47;94.25;101994.38;5093334;28;20032;-56
2023/05/16 07:01:07;;;;;;;10.30;2.63;;;;;;;9.54;93.17;101989.63;5094047;28;20380;-57
2023/05/16 07:03:32;;;;;;;11.50;2.92;;;;;;;9.59;90.04;101986.41;5093190;28;20032;-56
2023/05/16 07:05:58;;;;;;;10.90;3.38;;;;;;;9.63;90.68;101998.63;5094317;28;20118;-57
2023/05/16 07:08:24;;;;;;;11.25;2.95;;;;;;;9.80;91.25;101995.22;5093736;28;20032;-57
2023/05/16 07:10:50;;;;;;;11.25;2.60;;;;;;;9.83;87.76;101994.50;5093386;28;20107;-57
2023/05/16 07:13:15;;;;;;;10.88;2.78;;;;;;;9.88;86.89;102000.78;5094128;28;20107;-57
2023/05/16 07:15:40;;;;;;;8.93;2.40;;;;;;;9.94;88.20;102010.50;5093985;28;20024;-56
2023/05/16 07:18:05;;;;;;;13.02;2.50;;;;;;;9.99;84.39;101998.72;5092951;28;20048;-57
2023/05/16 07:20:31;;;;;;;9.13;2.40;;;;;;;10.04;85.63;101997.28;5093876;28;20472;-57
2023/05/16 07:22:56;;;;;;;11.00;2.40;;;;;;;10.07;85.01;102002.59;5094062;28;20024;-57
2023/05/16 07:25:23;;;;;;;8.70;2.50;;;;;;;10.27;87.67;102005.28;5092758;28;20021;-57
2023/05/16 07:27:48;;;;;;;12.25;2.40;;;;;;;10.11;82.42;101999.34;5093755;28;20590;-55
2023/05/16 07:30:13;;;;;;;10.05;2.45;;;;;;;10.32;84.47;102008.97;5093126;28;20055;-55
2023/05/16 07:32:39;;;;;;;14.55;2.60;;;;;;;10.27;82.61;102007.84;5093384;28;20137;-56
2023/05/16 07:35:05;;;;;;;14.13;2.75;;;;;;;10.38;82.13;102009.31;5093972;28;20360;-55
2023/05/16 07:37:30;;;;;;;14.00;2.40;;;;;;;10.29;77.82;102012.28;5093395;28;20028;-54
2023/05/16 07:39:56;;;;;;;13.20;2.78;;;;;;;10.40;79.17;102007.66;5093291;28;20487;-55
2023/05/16 07:42:21;;;;;;;12.48;2.50;;;;;;;10.54;80.75;102022.09;5093385;28;20029;-56
2023/05/16 07:44:46;;;;;;;10.50;2.67;;;;;;;10.68;82.92;102006.44;5092988;28;20020;-56
2023/05/16 07:47:12;;;;;;;10.93;2.13;;;;;;;10.70;80.84;102012.53;5093214;28;20042;-55
2023/05/16 07:49:37;;;;;;;11.35;2.50;;;;;;;10.73;80.32;102017.84;5093279;28;20028;-55
2023/05/16 07:52:02;;;;;;;8.63;2.05;;;;;;;10.74;81.13;102014.44;5092931;28;20015;-56
2023/05/16 07:54:28;;;;;;;9.50;2.47;;;;;;;10.86;80.57;102020.19;5093062;28;20109;-57
2023/05/16 07:56:53;;;;;;;9.02;2.10;;;;;;;11.13;78.68;102019.72;5093243;28;20066;-56
2023/05/16 07:59:19;;;;;;;7.78;1.95;;;;;;;11.33;76.56;102017.16;5092442;28;20036;-54
2023/05/16 08:01:44;;;;;;;9.27;2.00;;;;;;;11.31;74.60;102018.78;5092927;28;20073;-56
2023/05/16 08:04:09;;;;;;;7.78;1.90;;;;;;;11.22;75.25;102019.25;5093436;28;20028;-56
2023/05/16 08:06:35;;;;;;;8.90;1.98;;;;;;;11.56;79.52;102019.91;5092434;28;20073;-56
2023/05/16 08:09:01;;;;;;;7.50;1.98;;;;;;;11.72;79.34;102012.00;5092703;28;20024;-56
2023/05/16 08:11:26;;;;;;;9.35;2.45;;;;;;;11.68;76.89;102017.84;5092990;28;20077;-57
2023/05/16 08:13:52;;;;;;;10.60;2.30;;;;;;;11.20;74.08;102026.03;5092250;28;20020;-57
2023/05/16 08:16:17;;;;;;;8.70;2.15;;;;;;;10.84;78.63;102032.13;5092426;28;20036;-57
2023/05/16 08:18:44;;;;;;;12.50;2.65;;;;;;;10.52;78.60;102031.47;5093000;28;20055;-57
2023/05/16 08:21:09;;;;;;;10.25;2.83;;;;;;;10.66;81.62;102031.25;5092381;28;20028;-57
2023/05/16 08:23:35;;;;;;;10.57;2.40;;;;;;;10.91;84.90;102032.41;5092719;28;20884;-57
2023/05/16 08:26:01;;;;;;;15.10;2.42;;;;;;;11.16;80.58;102022.44;5093019;28;20030;-56
2023/05/16 08:28:27;;;;;;;10.30;2.40;;;;;;;11.52;76.12;102019.75;5091844;28;20451;-57
2023/05/16 08:30:52;;;;;;;8.27;1.95;;;;;;;11.74;73.03;102023.28;5093049;28;20073;-56
2023/05/16 08:33:18;;;;;;;11.45;1.83;;;;;;;11.98;71.71;102014.84;5092384;28;20213;-57
2023/05/16 08:35:43;;;;;;;8.90;2.10;;;;;;;12.37;70.70;102014.78;5092440;28;20012;-57
2023/05/16 08:38:09;;;;;;;7.85;1.83;;;;;;;12.31;67.71;102015.38;5092741;28;20077;-57
2023/05/16 08:40:34;;;;;;;8.85;1.80;;;;;;;12.21;70.02;102009.78;5092028;28;20056;-57
2023/05/16 08:43:00;;;;;;;11.40;1.95;;;;;;;12.32;67.83;102008.53;5092523;28;20042;-56
2023/05/16 08:45:26;;;;;;;9.18;2.28;;;;;;;12.30;69.61;102007.56;5092322;28;20396;-57
2023/05/16 08:47:54;;;;;;;9.40;1.92;;;;;;;12.27;66.94;102010.91;5092407;28;20028;-56
2023/05/16 08:50:19;;;;;;;10.63;1.65;;;;;;;12.65;70.70;102013.28;5092400;28;20051;-57
2023/05/16 08:52:46;;;;;;;7.95;1.85;;;;;;;12.48;66.10;102012.59;5092836;28;20379;-57
2023/05/16 08:55:13;;;;;;;19.10;1.70;;;;;;;12.61;69.13;102008.81;5092151;28;20069;-57
2023/05/16 08:57:39;;;;;;;9.27;1.90;;;;;;;12.32;66.17;102005.94;5091972;28;20486;-57
2023/05/16 09:00:12;;;;;;;8.70;2.15;;;;;;;12.06;68.48;102003.16;5092518;28;20490;-57
2023/05/16 09:02:41;;;;;;;8.70;1.83;;;;;;;12.30;70.26;102015.31;5090778;28;20052;-57
2023/05/16 09:05:16;;;;;;;7.65;2.00;;;;;;;12.64;72.45;102008.91;5092285;28;20020;-57
2023/05/16 09:07:42;;;;;;;9.13;2.08;;;;;;;12.55;65.26;102005.97;5092722;28;20040;-56
2023/05/16 09:10:09;;;;;;;7.63;1.95;;;;;;;12.68;66.28;102010.84;5091702;28;20857;-57
2023/05/16 09:12:34;;;;;;;10.70;1.73;;;;;;;13.17;68.43;102011.84;5092374;28;20150;-57
2023/05/16 09:15:05;;;;;;;7.82;1.60;;;;;;;13.49;65.70;102020.84;5092704;28;20471;-57
2023/05/16 09:17:38;;;;;;;6.07;1.60;;;;;;;13.23;63.78;102017.22;5091091;28;20364;-57
2023/05/16 09:20:18;;;;;;;7.07;1.90;;;;;;;12.97;68.46;102024.00;5092647;28;20464;-57
2023/05/16 09:22:57;;;;;;;8.20;2.35;;;;;;;12.62;69.57;102031.28;5095671;28;20028;-57
2023/05/16 09:25:24;;;;;;;7.45;2.05;;;;;;;12.45;69.28;102028.88;5095900;28;20023;-56
2023/05/16 09:27:54;;;;;;;9.00;2.08;;;;;;;12.51;71.15;102034.31;5096192;28;20020;-56
2023/05/16 09:30:27;;;;;;;9.98;1.92;;;;;;;12.35;67.77;102027.59;5095225;28;20398;-56
2023/05/16 09:32:52;;;;;;;9.98;2.05;;;;;;;12.49;68.08;102017.84;5095922;28;20028;-56
2023/05/16 09:35:22;;;;;;;9.05;1.40;;;;;;;12.43;69.06;102022.75;5095615;28;20020;-57
2023/05/16 09:37:51;;;;;;;7.80;2.33;;;;;;;12.63;65.88;102023.56;5095514;28;20059;-57
2023/05/16 09:40:20;;;;;;;6.53;1.73;;;;;;;12.84;64.97;102020.06;5095543;28;20027;-57
2023/05/16 09:42:45;;;;;;;6.32;1.52;;;;;;;13.06;60.46;102016.59;5096048;28;20021;-56
2023/05/16 09:45:12;;;;;;;8.40;1.45;;;;;;;13.12;59.26;102014.25;5095056;28;20020;-57
2023/05/16 09:47:44;;;;;;;7.75;1.65;;;;;;;13.42;59.98;102012.78;5095417;28;20020;-57
2023/05/16 09:50:11;;;;;;;5.68;1.50;;;;;;;13.69;56.18;102007.72;5095896;28;20103;-57
2023/05/16 09:52:37;;;;;;;5.93;1.50;;;;;;;13.96;53.65;102009.50;5094706;28;20020;-57
2023/05/16 09:55:06;;;;;;;8.55;1.63;;;;;;;14.74;59.09;102011.19;5095744;28;20032;-57
2023/05/16 09:57:31;;;;;;;5.32;1.40;;;;;;;15.25;53.50;102009.25;5095367;28;20024;-56
2023/05/16 10:00:00;;;;;;;6.95;1.67;;;;;;;15.43;52.71;102009.78;5094837;28;20030;-57
2023/05/16 10:02:26;;;;;;;9.50;2.10;;;;;;;14.68;54.08;102013.63;5095072;28;20024;-57
2023/05/16 10:04:51;;;;;;;7.57;1.70;;;;;;;13.96;53.17;102015.56;5095035;28;20035;-57
2023/05/16 10:07:18;;;;;;;7.32;1.65;;;;;;;13.45;56.70;102023.25;5095087;28;20097;-57
2023/05/16 10:09:45;;;;;;;9.48;1.80;;;;;;;13.31;59.73;102020.09;5095471;28;20103;-56
2023/05/16 10:12:12;;;;;;;7.95;1.50;;;;;;;13.26;56.88;102016.47;5094920;28;20081;-57
2023/05/16 10:14:40;;;;;;;6.20;1.67;;;;;;;14.60;53.52;102023.72;5094745;28;20020;-57
2023/05/16 10:17:10;;;;;;;243.80;32.85;;;;;;;16.41;51.42;102012.31;5095004;28;20480;-57
2023/05/16 10:19:38;;;;;;;9.80;1.92;;;;;;;17.35;45.95;102009.25;5094526;28;20032;-57
2023/05/16 10:22:05;;;;;;;8.85;1.73;;;;;;;18.67;43.81;102001.97;5094810;28;20364;-57
2023/05/16 10:24:45;;;;;;;4.82;1.20;;;;;;;19.64;41.74;102004.94;5094674;28;20035;-57
2023/05/16 10:27:11;;;;;;;5.88;1.38;;;;;;;19.05;39.43;102012.06;5094209;28;20020;-57
2023/05/16 10:29:37;;;;;;;6.38;1.50;;;;;;;17.94;39.71;102010.34;5094559;28;20030;-57
2023/05/16 10:32:05;;;;;;;6.53;1.30;;;;;;;17.08;41.65;102018.22;5094889;28;20020;-57
2023/05/16 10:34:31;;;;;;;3.78;1.25;;;;;;;16.41;42.37;102021.03;5093965;28;20028;-57
2023/05/16 10:36:56;;;;;;;6.75;1.38;;;;;;;16.55;43.17;102017.84;5094732;28;20421;-57
2023/05/16 10:39:23;;;;;;;5.57;1.40;;;;;;;16.40;43.65;102019.25;5094558;28;20471;-57
2023/05/16 10:41:49;;;;;;;5.82;1.08;;;;;;;17.28;42.43;102007.34;5093928;28;20028;-57
2023/05/16 10:44:15;;;;;;;4.43;1.50;;;;;;;18.13;42.24;102005.44;5094584;28;20027;-57
2023/05/16 10:46:40;;;;;;;4.80;1.20;;;;;;;18.31;40.90;102011.00;5094598;28;20024;-57
2023/05/16 10:49:22;;;;;;;5.75;1.30;;;;;;;17.66;42.53;102012.41;5093711;28;20046;-57
2023/05/16 10:52:08;;;;;;;11.00;1.60;;;;;;;17.73;43.91;102010.81;5094598;28;20062;-57
2023/05/16 10:54:50;;;;;;;6.57;1.50;;;;;;;17.20;44.92;102017.59;5093220;28;20557;-57
2023/05/16 10:57:19;;;;;;;5.95;1.63;;;;;;;16.30;42.66;102015.53;5094041;28;20115;-57
2023/05/16 10:59:47;;;;;;;8.23;1.70;;;;;;;15.82;45.53;102016.06;5094503;28;20047;-57
2023/05/16 11:02:23;;;;;;;;;;;;;;;16.06;45.41;102015.81;5093901;28;20495;-57
2023/05/16 11:04:50;;;;;;;6.07;1.55;;;;;;;14.85;47.36;102019.31;5094133;28;20370;-57
2023/05/16 11:07:17;;;;;;;7.43;1.83;;;;;;;14.48;47.85;102024.19;5094264;28;20024;-56
2023/05/16 11:09:44;;;;;;;11.65;1.80;;;;;;;15.34;50.29;102017.31;5093572;28;20024;-57
2023/05/16 11:12:09;;;;;;;9.23;1.60;;;;;;;15.52;51.03;102014.34;5094039;28;20495;-57
2023/05/16 11:14:38;;;;;;;5.85;1.33;;;;;;;15.19;51.24;102024.66;5093777;28;20024;-57
2023/05/16 11:17:22;;;;;;;8.73;1.65;;;;;;;14.72;51.13;102025.84;5093188;28;20048;-57